Time,TemperatureF,DewpointF,PressureIn,WindDirection,WindDirectionDegrees,WindSpeedMPH,WindSpeedGustMPH,Humidity,HourlyPrecipIn,Conditions,Clouds,dailyrainin,SoftwareType,DateUTC
2013-10-10 00:04:00,50.5,32.5,29.70,WNW,292,0.0,0.0,50,0.00,,,0.00,Wunderground v.1.15,2013-10-10 07:04:00,
2013-10-10 00:10:00,50.4,31.9,29.70,West,281,0.0,0.0,49,0.00,,,0.00,Wunderground v.1.15,2013-10-10 07:10:00,
2013-10-10 00:16:00,50.2,31.8,29.70,West,264,0.0,0.0,49,0.00,,,0.00,Wunderground v.1.15,2013-10-10 07:16:00,
2013-10-10 00:22:00,49.9,32.0,29.70,West,278,0.0,0.0,50,0.00,,,0.00,Wunderground v.1.15,2013-10-10 07:22:00,
2013-10-10 00:28:00,49.7,31.3,29.70,WNW,288,0.0,0.0,49,0.00,,,0.00,Wunderground v.1.15,2013-10-10 07:28:00,
2013-10-10 00:34:00,49.5,31.1,29.70,NNW,328,0.0,0.0,49,0.00,,,0.00,Wunderground v.1.15,2013-10-10 07:34:00,
2013-10-10 00:40:00,49.9,31.5,29.71,WNW,289,0.0,0.0,49,0.00,,,0.00,Wunderground v.1.15,2013-10-10 07:40:00,
2013-10-10 00:46:00,49.8,31.9,29.71,WNW,295,0.0,0.0,50,0.00,,,0.00,Wunderground v.1.15,2013-10-10 07:46:00,
2013-10-10 00:52:00,49.5,33.1,29.71,West,266,0.0,0.0,53,0.00,,,0.00,Wunderground v.1.15,2013-10-10 07:52:00,
2013-10-10 00:58:00,49.1,32.7,29.71,WNW,302,0.0,0.0,53,0.00,,,0.00,Wunderground v.1.15,2013-10-10 07:58:00,
2013-10-10 01:03:00,49.1,32.7,29.71,NNW,333,0.0,0.0,53,0.00,,,0.00,Wunderground v.1.15,2013-10-10 08:03:00,
2013-10-10 01:09:00,49.0,32.6,29.71,NW,321,0.0,0.0,53,0.00,,,0.00,Wunderground v.1.15,2013-10-10 08:09:00,
2013-10-10 01:15:00,49.2,31.8,29.71,NW,311,0.0,0.0,51,0.00,,,0.00,Wunderground v.1.15,2013-10-10 08:15:00,
2013-10-10 01:21:00,49.6,32.2,29.71,NW,318,0.0,0.0,51,0.00,,,0.00,Wunderground v.1.15,2013-10-10 08:21:00,
2013-10-10 01:27:00,49.4,33.0,29.71,West,280,0.0,0.0,53,0.00,,,0.00,Wunderground v.1.15,2013-10-10 08:27:00,
2013-10-10 01:33:00,49.2,33.3,29.71,WNW,296,0.0,0.0,54,0.00,,,0.00,Wunderground v.1.15,2013-10-10 08:33:00,
2013-10-10 01:39:00,49.1,33.2,29.70,NW,311,0.0,0.0,54,0.00,,,0.00,Wunderground v.1.15,2013-10-10 08:39:00,
2013-10-10 01:45:00,49.0,33.1,29.71,NNW,339,0.0,0.0,54,0.00,,,0.00,Wunderground v.1.15,2013-10-10 08:45:00,
2013-10-10 01:51:00,48.9,33.0,29.71,WNW,288,0.0,0.0,54,0.00,,,0.00,Wunderground v.1.15,2013-10-10 08:51:00,
2013-10-10 01:57:00,48.9,32.5,29.71,NW,317,0.0,0.0,53,0.00,,,0.00,Wunderground v.1.15,2013-10-10 08:57:00,
2013-10-10 02:03:00,48.5,32.6,29.71,WSW,258,0.0,0.0,54,0.00,,,0.00,Wunderground v.1.15,2013-10-10 09:03:00,
2013-10-10 02:09:00,48.0,33.0,29.71,WNW,288,0.0,0.0,56,0.00,,,0.00,Wunderground v.1.15,2013-10-10 09:09:00,
2013-10-10 02:15:00,47.4,33.4,29.71,WSW,257,0.0,0.0,58,0.00,,,0.00,Wunderground v.1.15,2013-10-10 09:15:00,
2013-10-10 02:20:00,47.0,33.4,29.71,SW,219,0.0,0.0,59,0.00,,,0.00,Wunderground v.1.15,2013-10-10 09:20:00,
2013-10-10 02:26:00,46.8,33.6,29.71,West,262,0.0,0.0,60,0.00,,,0.00,Wunderground v.1.15,2013-10-10 09:26:00,
2013-10-10 02:32:00,46.7,33.5,29.71,NW,314,0.0,0.0,60,0.00,,,0.00,Wunderground v.1.15,2013-10-10 09:32:00,
2013-10-10 02:38:00,46.6,33.0,29.71,WNW,285,0.0,0.0,59,0.00,,,0.00,Wunderground v.1.15,2013-10-10 09:38:00,
2013-10-10 02:44:00,46.6,32.6,29.71,NW,325,0.0,0.0,58,0.00,,,0.00,Wunderground v.1.15,2013-10-10 09:44:00,
2013-10-10 02:50:00,46.7,32.3,29.71,NW,310,0.0,0.0,57,0.00,,,0.00,Wunderground v.1.15,2013-10-10 09:50:00,
2013-10-10 02:56:00,46.6,32.2,29.72,NW,318,0.0,0.0,57,0.00,,,0.00,Wunderground v.1.15,2013-10-10 09:56:00,
2013-10-10 03:02:00,46.5,32.1,29.72,West,277,0.0,0.0,57,0.00,,,0.00,Wunderground v.1.15,2013-10-10 10:02:00,
2013-10-10 03:08:00,46.5,32.5,29.72,WNW,294,0.0,0.0,58,0.00,,,0.00,Wunderground v.1.15,2013-10-10 10:08:00,
2013-10-10 03:14:00,46.4,32.8,29.72,WNW,288,0.0,0.0,59,0.00,,,0.00,Wunderground v.1.15,2013-10-10 10:14:00,
2013-10-10 03:20:00,46.3,32.7,29.72,NNW,340,0.0,0.0,59,0.00,,,0.00,Wunderground v.1.15,2013-10-10 10:20:00,
2013-10-10 03:26:00,46.2,32.7,29.72,WNW,289,0.0,0.0,59,0.00,,,0.00,Wunderground v.1.15,2013-10-10 10:26:00,
2013-10-10 03:31:00,46.1,33.0,29.72,West,269,0.0,0.0,60,0.00,,,0.00,Wunderground v.1.15,2013-10-10 10:31:00,
2013-10-10 03:37:00,45.9,33.2,29.72,WSW,243,0.0,0.0,61,0.00,,,0.00,Wunderground v.1.15,2013-10-10 10:37:00,
2013-10-10 03:43:00,45.9,32.4,29.73,WNW,288,0.0,0.0,59,0.00,,,0.00,Wunderground v.1.15,2013-10-10 10:43:00,
2013-10-10 03:49:00,45.9,31.9,29.73,West,281,0.0,0.0,58,0.00,,,0.00,Wunderground v.1.15,2013-10-10 10:49:00,
2013-10-10 03:55:00,45.8,31.9,29.73,WNW,295,0.0,0.0,58,0.00,,,0.00,Wunderground v.1.15,2013-10-10 10:55:00,
2013-10-10 04:00:00,45.8,31.9,29.73,West,264,0.0,0.0,58,0.00,,,0.00,Wunderground v.1.15,2013-10-10 11:00:00,
2013-10-10 04:05:00,45.6,32.1,29.74,West,281,0.0,0.0,59,0.00,,,0.00,Wunderground v.1.15,2013-10-10 11:05:00,
2013-10-10 04:11:00,45.5,32.0,29.74,West,264,0.0,0.0,59,0.00,,,0.00,Wunderground v.1.15,2013-10-10 11:11:00,
2013-10-10 04:17:00,45.4,32.3,29.75,WNW,283,0.0,0.0,60,0.00,,,0.00,Wunderground v.1.15,2013-10-10 11:17:00,
2013-10-10 04:23:00,45.3,31.8,29.75,NW,319,0.0,0.0,59,0.00,,,0.00,Wunderground v.1.15,2013-10-10 11:23:00,
2013-10-10 04:29:00,45.1,31.6,29.75,WNW,286,0.0,0.0,59,0.00,,,0.00,Wunderground v.1.15,2013-10-10 11:29:00,
2013-10-10 04:35:00,44.9,31.8,29.75,NW,318,0.0,0.0,60,0.00,,,0.00,Wunderground v.1.15,2013-10-10 11:35:00,
2013-10-10 04:41:00,44.5,31.5,29.75,WNW,298,0.0,0.0,60,0.00,,,0.00,Wunderground v.1.15,2013-10-10 11:41:00,
2013-10-10 04:46:00,43.9,30.9,29.74,WNW,292,0.0,0.0,60,0.00,,,0.00,Wunderground v.1.15,2013-10-10 11:46:00,
2013-10-10 04:52:00,43.9,30.9,29.74,WNW,292,0.0,0.0,60,0.00,,,0.00,Wunderground v.1.15,2013-10-10 11:52:00,
2013-10-10 04:57:00,-999.9,-99.9,29.74,North,32767,-999.0,0.0,255,-99.99,,,0.00,Wunderground v.1.15,2013-10-10 11:57:00,
2013-10-10 05:02:00,-999.9,-99.9,29.73,North,32767,-999.0,0.0,255,-99.99,,,0.00,Wunderground v.1.15,2013-10-10 12:02:00,
2013-10-10 05:09:00,-999.9,-99.9,29.73,North,32767,-999.0,0.0,255,-99.99,,,0.00,Wunderground v.1.15,2013-10-10 12:09:00,
2013-10-10 05:14:00,-999.9,-99.9,29.73,North,32767,-999.0,0.0,255,-99.99,,,0.00,Wunderground v.1.15,2013-10-10 12:14:00,
2013-10-10 05:20:00,-999.9,-99.9,29.73,North,32767,-999.0,0.0,255,-99.99,,,0.00,Wunderground v.1.15,2013-10-10 12:20:00,
2013-10-10 05:26:00,-999.9,-99.9,29.73,North,32767,-999.0,0.0,255,-99.99,,,0.00,Wunderground v.1.15,2013-10-10 12:26:00,
2013-10-10 05:32:00,-999.9,-99.9,29.74,North,32767,-999.0,0.0,255,-99.99,,,0.00,Wunderground v.1.15,2013-10-10 12:32:00,
2013-10-10 05:37:00,-999.9,-99.9,29.74,North,32767,-999.0,0.0,255,-99.99,,,0.00,Wunderground v.1.15,2013-10-10 12:37:00,
2013-10-10 05:42:00,-999.9,-99.9,29.74,North,32767,-999.0,0.0,255,-99.99,,,0.00,Wunderground v.1.15,2013-10-10 12:42:00,
2013-10-10 05:48:00,-999.9,-99.9,29.75,North,32767,-999.0,0.0,255,-99.99,,,0.00,Wunderground v.1.15,2013-10-10 12:48:00,
2013-10-10 05:54:00,-999.9,-99.9,29.75,North,32767,-999.0,0.0,255,-99.99,,,0.00,Wunderground v.1.15,2013-10-10 12:54:00,
2013-10-10 06:00:00,-999.9,-99.9,29.75,North,32767,-999.0,0.0,255,-99.99,,,0.00,Wunderground v.1.15,2013-10-10 13:00:00,
2013-10-10 06:06:00,-999.9,-99.9,29.75,North,32767,-999.0,0.0,255,-99.99,,,0.00,Wunderground v.1.15,2013-10-10 13:06:00,
2013-10-10 06:12:00,-999.9,-99.9,29.76,North,32767,-999.0,0.0,255,-99.99,,,0.00,Wunderground v.1.15,2013-10-10 13:12:00,
2013-10-10 06:18:00,-999.9,-99.9,29.76,North,32767,-999.0,0.0,255,-99.99,,,0.00,Wunderground v.1.15,2013-10-10 13:18:00,
2013-10-10 06:24:00,-999.9,-99.9,29.76,North,32767,-999.0,0.0,255,-99.99,,,0.00,Wunderground v.1.15,2013-10-10 13:24:00,
2013-10-10 06:30:00,-999.9,-99.9,29.76,North,32767,-999.0,0.0,255,-99.99,,,0.00,Wunderground v.1.15,2013-10-10 13:30:00,
2013-10-10 06:36:00,-999.9,-99.9,29.76,North,32767,-999.0,0.0,255,-99.99,,,0.00,Wunderground v.1.15,2013-10-10 13:36:00,
2013-10-10 06:42:00,-999.9,-99.9,29.76,North,32767,-999.0,0.0,255,-99.99,,,0.00,Wunderground v.1.15,2013-10-10 13:42:00,
2013-10-10 06:49:00,-999.9,-99.9,29.76,North,32767,-999.0,0.0,255,-99.99,,,0.00,Wunderground v.1.15,2013-10-10 13:49:00,
2013-10-10 06:55:00,-999.9,-99.9,29.76,North,32767,-999.0,0.0,255,-99.99,,,0.00,Wunderground v.1.15,2013-10-10 13:55:00,
2013-10-10 07:00:00,-999.9,-99.9,29.76,North,32767,-999.0,0.0,255,-99.99,,,0.00,Wunderground v.1.15,2013-10-10 14:00:00,
2013-10-10 07:06:00,-999.9,-99.9,29.76,North,32767,-999.0,0.0,255,-99.99,,,0.00,Wunderground v.1.15,2013-10-10 14:06:00,
2013-10-10 07:12:00,-999.9,-99.9,29.76,North,32767,-999.0,0.0,255,-99.99,,,0.00,Wunderground v.1.15,2013-10-10 14:12:00,
2013-10-10 07:18:00,-999.9,-99.9,29.77,North,32767,-999.0,0.0,255,-99.99,,,0.00,Wunderground v.1.15,2013-10-10 14:18:00,
2013-10-10 07:24:00,44.8,33.0,29.77,West,278,0.0,0.0,63,0.00,,,0.00,Wunderground v.1.15,2013-10-10 14:24:00,
2013-10-10 07:30:00,45.3,33.0,29.77,West,265,0.0,0.0,62,0.00,,,0.00,Wunderground v.1.15,2013-10-10 14:30:00,
2013-10-10 07:36:00,45.8,33.1,29.78,West,263,0.0,0.0,61,0.00,,,0.00,Wunderground v.1.15,2013-10-10 14:36:00,
2013-10-10 07:42:00,46.1,33.0,29.78,West,262,0.0,0.0,60,0.00,,,0.00,Wunderground v.1.15,2013-10-10 14:42:00,
2013-10-10 07:48:00,46.5,33.4,29.78,West,276,0.0,0.0,60,0.00,,,0.00,Wunderground v.1.15,2013-10-10 14:48:00,
2013-10-10 07:54:00,46.8,33.2,29.79,West,281,0.0,0.0,59,0.00,,,0.00,Wunderground v.1.15,2013-10-10 14:54:00,
2013-10-10 08:00:00,47.2,33.6,29.79,SW,227,0.0,0.0,59,0.00,,,0.00,Wunderground v.1.15,2013-10-10 15:00:00,
2013-10-10 08:06:00,47.3,33.3,29.79,West,266,0.0,0.0,58,0.00,,,0.00,Wunderground v.1.15,2013-10-10 15:06:00,
2013-10-10 08:12:00,47.1,33.5,29.79,SW,224,0.0,0.0,59,0.00,,,0.00,Wunderground v.1.15,2013-10-10 15:12:00,
2013-10-10 08:18:00,46.9,33.3,29.79,West,280,0.0,0.0,59,0.00,,,0.00,Wunderground v.1.15,2013-10-10 15:18:00,
2013-10-10 08:24:00,46.9,33.3,29.80,West,278,0.0,0.0,59,0.00,,,0.00,Wunderground v.1.15,2013-10-10 15:24:00,
2013-10-10 08:30:00,47.1,33.1,29.80,West,264,0.0,0.0,58,0.00,,,0.00,Wunderground v.1.15,2013-10-10 15:30:00,
2013-10-10 08:36:00,47.1,33.5,29.81,WSW,252,0.0,0.0,59,0.00,,,0.00,Wunderground v.1.15,2013-10-10 15:36:00,
2013-10-10 08:41:00,47.5,33.9,29.81,WSW,238,0.0,0.0,59,0.00,,,0.00,Wunderground v.1.15,2013-10-10 15:41:00,
2013-10-10 08:47:00,47.6,33.5,29.81,WSW,250,0.0,0.0,58,0.00,,,0.00,Wunderground v.1.15,2013-10-10 15:47:00,
2013-10-10 08:53:00,47.8,32.4,29.81,WSW,245,0.0,0.0,55,0.00,,,0.00,Wunderground v.1.15,2013-10-10 15:53:00,
2013-10-10 08:59:00,47.9,32.0,29.81,SW,229,0.0,0.0,54,0.00,,,0.00,Wunderground v.1.15,2013-10-10 15:59:00,
2013-10-10 09:05:00,48.1,31.8,29.81,SW,221,0.0,0.0,53,0.00,,,0.00,Wunderground v.1.15,2013-10-10 16:05:00,
2013-10-10 09:10:00,48.6,32.7,29.81,SW,229,0.0,0.0,54,0.00,,,0.00,Wunderground v.1.15,2013-10-10 16:10:00,
2013-10-10 09:16:00,49.0,33.1,29.81,West,264,0.0,0.0,54,0.00,,,0.00,Wunderground v.1.15,2013-10-10 16:16:00,
2013-10-10 09:22:00,49.2,32.8,29.81,WSW,244,0.0,0.0,53,0.00,,,0.00,Wunderground v.1.15,2013-10-10 16:22:00,
2013-10-10 09:28:00,49.7,33.2,29.82,WSW,258,0.0,0.0,53,0.00,,,0.00,Wunderground v.1.15,2013-10-10 16:28:00,
2013-10-10 09:34:00,50.2,33.2,29.82,WSW,245,0.0,0.0,52,0.00,,,0.00,Wunderground v.1.15,2013-10-10 16:34:00,
2013-10-10 09:39:00,50.3,32.8,29.82,SW,221,0.0,0.0,51,0.00,,,0.00,Wunderground v.1.15,2013-10-10 16:39:00,
2013-10-10 09:45:00,50.7,33.2,29.82,SW,226,0.0,0.0,51,0.00,,,0.00,Wunderground v.1.15,2013-10-10 16:45:00,
2013-10-10 09:51:00,51.0,32.5,29.83,WNW,298,0.0,0.0,49,0.00,,,0.00,Wunderground v.1.15,2013-10-10 16:51:00,
2013-10-10 09:56:00,51.3,32.8,29.82,West,269,0.0,0.0,49,0.00,,,0.00,Wunderground v.1.15,2013-10-10 16:56:00,
2013-10-10 10:02:00,51.6,32.0,29.82,NW,307,0.0,0.0,47,0.00,,,0.00,Wunderground v.1.15,2013-10-10 17:02:00,
2013-10-10 10:08:00,51.7,32.6,29.82,NW,313,0.0,0.0,48,0.00,,,0.00,Wunderground v.1.15,2013-10-10 17:08:00,
2013-10-10 10:13:00,51.8,33.2,29.83,West,264,0.0,0.0,49,0.00,,,0.00,Wunderground v.1.15,2013-10-10 17:13:00,
2013-10-10 10:19:00,51.9,33.3,29.83,West,266,0.0,0.0,49,0.00,,,0.00,Wunderground v.1.15,2013-10-10 17:19:00,
2013-10-10 10:25:00,52.0,33.4,29.83,WNW,297,0.0,0.0,49,0.00,,,0.00,Wunderground v.1.15,2013-10-10 17:25:00,
2013-10-10 10:31:00,52.5,33.9,29.83,NNW,345,0.0,0.0,49,0.00,,,0.00,Wunderground v.1.15,2013-10-10 17:31:00,
2013-10-10 10:37:00,52.9,33.7,29.83,WNW,285,0.0,0.0,48,0.00,,,0.00,Wunderground v.1.15,2013-10-10 17:37:00,
2013-10-10 10:42:00,53.4,32.6,29.83,West,265,0.0,0.0,45,0.00,,,0.00,Wunderground v.1.15,2013-10-10 17:42:00,
2013-10-10 10:48:00,53.7,32.3,29.84,WSW,257,0.0,0.0,44,0.00,,,0.00,Wunderground v.1.15,2013-10-10 17:48:00,
2013-10-10 10:54:00,54.1,32.6,29.83,WNW,293,0.0,0.0,44,0.00,,,0.00,Wunderground v.1.15,2013-10-10 17:54:00,
2013-10-10 11:00:00,53.9,31.9,29.83,West,261,0.0,0.0,43,0.00,,,0.00,Wunderground v.1.15,2013-10-10 18:00:00,
2013-10-10 11:06:00,54.3,32.8,29.83,WNW,285,0.0,0.0,44,0.00,,,0.00,Wunderground v.1.15,2013-10-10 18:06:00,
2013-10-10 11:11:00,54.3,32.3,29.83,West,276,0.0,0.0,43,0.00,,,0.00,Wunderground v.1.15,2013-10-10 18:11:00,
2013-10-10 11:17:00,54.5,32.4,29.83,NNW,329,0.0,0.0,43,0.00,,,0.00,Wunderground v.1.15,2013-10-10 18:17:00,
2013-10-10 11:23:00,54.9,32.2,29.83,WSW,250,0.0,0.0,42,0.00,,,0.00,Wunderground v.1.15,2013-10-10 18:23:00,
2013-10-10 11:29:00,55.6,31.6,29.83,West,262,0.0,0.0,40,0.00,,,0.00,Wunderground v.1.15,2013-10-10 18:29:00,
2013-10-10 11:35:00,55.9,31.9,29.83,NW,305,0.0,0.0,40,0.00,,,0.00,Wunderground v.1.15,2013-10-10 18:35:00,
2013-10-10 11:40:00,56.3,31.6,29.83,WNW,282,0.0,0.0,39,0.00,,,0.00,Wunderground v.1.15,2013-10-10 18:40:00,
2013-10-10 11:46:00,56.3,32.3,29.83,West,270,0.0,0.0,40,0.00,,,0.00,Wunderground v.1.15,2013-10-10 18:46:00,
2013-10-10 11:52:00,56.1,32.1,29.83,West,276,0.0,0.0,40,0.00,,,0.00,Wunderground v.1.15,2013-10-10 18:52:00,
2013-10-10 11:57:00,56.7,32.0,29.83,WSW,244,0.0,0.0,39,0.00,,,0.00,Wunderground v.1.15,2013-10-10 18:57:00,
2013-10-10 12:03:00,57.2,32.4,29.82,NW,316,0.0,0.0,39,0.00,,,0.00,Wunderground v.1.15,2013-10-10 19:03:00,
2013-10-10 12:08:00,57.0,31.6,29.82,West,266,0.0,0.0,38,0.00,,,0.00,Wunderground v.1.15,2013-10-10 19:08:00,
2013-10-10 12:14:00,57.3,31.2,29.82,WNW,293,0.0,0.0,37,0.00,,,0.00,Wunderground v.1.15,2013-10-10 19:14:00,
2013-10-10 12:19:00,57.7,31.6,29.82,North,356,0.0,0.0,37,0.00,,,0.00,Wunderground v.1.15,2013-10-10 19:19:00,
2013-10-10 12:25:00,58.0,31.2,29.82,West,275,0.0,0.0,36,0.00,,,0.00,Wunderground v.1.15,2013-10-10 19:25:00,
2013-10-10 12:31:00,58.3,30.7,29.82,West,274,0.0,0.0,35,0.00,,,0.00,Wunderground v.1.15,2013-10-10 19:31:00,
2013-10-10 12:37:00,58.4,30.1,29.82,WNW,286,0.0,0.0,34,0.00,,,0.00,Wunderground v.1.15,2013-10-10 19:37:00,
2013-10-10 12:42:00,58.2,31.3,29.82,WSW,254,0.0,0.0,36,0.00,,,0.00,Wunderground v.1.15,2013-10-10 19:42:00,
2013-10-10 12:48:00,58.4,30.1,29.81,NW,311,0.0,0.0,34,0.00,,,0.00,Wunderground v.1.15,2013-10-10 19:48:00,
2013-10-10 12:53:00,58.5,29.5,29.81,West,267,0.0,0.0,33,0.00,,,0.00,Wunderground v.1.15,2013-10-10 19:53:00,
2013-10-10 12:59:00,58.7,31.1,29.81,NNW,330,0.0,0.0,35,0.00,,,0.00,Wunderground v.1.15,2013-10-10 19:59:00,
2013-10-10 13:05:00,59.3,30.9,29.81,WNW,290,0.0,0.0,34,0.00,,,0.00,Wunderground v.1.15,2013-10-10 20:05:00,
2013-10-10 13:11:00,59.6,30.4,29.81,West,278,0.0,0.0,33,0.00,,,0.00,Wunderground v.1.15,2013-10-10 20:11:00,
2013-10-10 13:16:00,59.5,30.3,29.81,West,274,0.0,0.0,33,0.00,,,0.00,Wunderground v.1.15,2013-10-10 20:16:00,
2013-10-10 13:22:00,59.9,29.9,29.82,WNW,292,0.0,0.0,32,0.00,,,0.00,Wunderground v.1.15,2013-10-10 20:22:00,
2013-10-10 13:28:00,60.2,30.2,29.81,WNW,288,0.0,0.0,32,0.00,,,0.00,Wunderground v.1.15,2013-10-10 20:28:00,
2013-10-10 13:33:00,60.3,30.3,29.82,WSW,251,0.0,0.0,32,0.00,,,0.00,Wunderground v.1.15,2013-10-10 20:33:00,
2013-10-10 13:38:00,60.1,30.1,29.81,WNW,294,0.0,0.0,32,0.00,,,0.00,Wunderground v.1.15,2013-10-10 20:38:00,
2013-10-10 13:43:00,60.5,30.5,29.81,WNW,297,0.0,0.0,32,0.00,,,0.00,Wunderground v.1.15,2013-10-10 20:43:00,
2013-10-10 13:49:00,60.3,30.3,29.81,WSW,257,0.0,0.0,32,0.00,,,0.00,Wunderground v.1.15,2013-10-10 20:49:00,
2013-10-10 13:55:00,60.8,29.9,29.81,WNW,287,0.0,0.0,31,0.00,,,0.00,Wunderground v.1.15,2013-10-10 20:55:00,
2013-10-10 14:00:00,61.2,30.3,29.81,West,259,0.0,0.0,31,0.00,,,0.00,Wunderground v.1.15,2013-10-10 21:00:00,
2013-10-10 14:06:00,61.1,30.2,29.81,NW,307,0.0,0.0,31,0.00,,,0.00,Wunderground v.1.15,2013-10-10 21:06:00,
2013-10-10 14:12:00,61.1,30.2,29.80,NW,314,0.0,0.0,31,0.00,,,0.00,Wunderground v.1.15,2013-10-10 21:12:00,
2013-10-10 14:17:00,60.8,29.9,29.80,WNW,297,0.0,0.0,31,0.00,,,0.00,Wunderground v.1.15,2013-10-10 21:17:00,
2013-10-10 14:23:00,61.4,29.7,29.80,NW,306,0.0,0.0,30,0.00,,,0.00,Wunderground v.1.15,2013-10-10 21:23:00,
2013-10-10 14:29:00,61.4,29.7,29.80,WNW,297,0.0,0.0,30,0.00,,,0.00,Wunderground v.1.15,2013-10-10 21:29:00,
2013-10-10 14:34:00,61.1,30.2,29.80,West,271,0.0,0.0,31,0.00,,,0.00,Wunderground v.1.15,2013-10-10 21:34:00,
2013-10-10 14:40:00,61.8,30.0,29.80,WSW,244,0.0,0.0,30,0.00,,,0.00,Wunderground v.1.15,2013-10-10 21:40:00,
2013-10-10 14:46:00,61.9,30.1,29.80,WNW,286,0.0,0.0,30,0.00,,,0.00,Wunderground v.1.15,2013-10-10 21:46:00,
2013-10-10 14:51:00,62.6,29.9,29.80,West,276,0.0,0.0,29,0.00,,,0.00,Wunderground v.1.15,2013-10-10 21:51:00,
2013-10-10 14:57:00,63.2,29.5,29.80,NNW,328,0.0,0.0,28,0.00,,,0.00,Wunderground v.1.15,2013-10-10 21:57:00,
2013-10-10 15:03:00,63.3,29.6,29.80,WNW,300,0.0,0.0,28,0.00,,,0.00,Wunderground v.1.15,2013-10-10 22:03:00,
2013-10-10 15:08:00,62.8,30.0,29.80,WNW,301,0.0,0.0,29,0.00,,,0.00,Wunderground v.1.15,2013-10-10 22:08:00,
2013-10-10 15:14:00,62.5,29.8,29.80,North,4,0.0,0.0,29,0.00,,,0.00,Wunderground v.1.15,2013-10-10 22:14:00,
2013-10-10 15:20:00,62.4,28.8,29.80,NW,306,0.0,0.0,28,0.00,,,0.00,Wunderground v.1.15,2013-10-10 22:20:00,
2013-10-10 15:25:00,62.5,28.9,29.80,NW,315,0.0,0.0,28,0.00,,,0.00,Wunderground v.1.15,2013-10-10 22:25:00,
2013-10-10 15:31:00,62.4,28.8,29.79,NNW,332,0.0,0.0,28,0.00,,,0.00,Wunderground v.1.15,2013-10-10 22:31:00,
2013-10-10 15:37:00,62.4,28.8,29.80,North,352,0.0,0.0,28,0.00,,,0.00,Wunderground v.1.15,2013-10-10 22:37:00,
2013-10-10 15:42:00,62.6,29.0,29.80,NW,318,0.0,0.0,28,0.00,,,0.00,Wunderground v.1.15,2013-10-10 22:42:00,
2013-10-10 15:48:00,63.4,28.8,29.80,WNW,298,0.0,0.0,27,0.00,,,0.00,Wunderground v.1.15,2013-10-10 22:48:00,
2013-10-10 15:54:00,63.4,28.8,29.80,NNW,332,0.0,0.0,27,0.00,,,0.00,Wunderground v.1.15,2013-10-10 22:54:00,
2013-10-10 16:00:00,63.5,28.9,29.79,WNW,286,0.0,0.0,27,0.00,,,0.00,Wunderground v.1.15,2013-10-10 23:00:00,
2013-10-10 16:05:00,63.7,28.1,29.80,WNW,285,0.0,0.0,26,0.00,,,0.00,Wunderground v.1.15,2013-10-10 23:05:00,
2013-10-10 16:11:00,64.0,28.4,29.80,SW,231,0.0,0.0,26,0.00,,,0.00,Wunderground v.1.15,2013-10-10 23:11:00,
2013-10-10 16:17:00,64.2,28.6,29.79,NW,324,0.0,0.0,26,0.00,,,0.00,Wunderground v.1.15,2013-10-10 23:17:00,
2013-10-10 16:23:00,64.1,28.5,29.80,WNW,302,0.0,0.0,26,0.00,,,0.00,Wunderground v.1.15,2013-10-10 23:23:00,
2013-10-10 16:28:00,64.0,29.3,29.79,NW,304,0.0,0.0,27,0.00,,,0.00,Wunderground v.1.15,2013-10-10 23:28:00,
2013-10-10 16:34:00,63.7,29.1,29.79,WNW,289,0.0,0.0,27,0.00,,,0.00,Wunderground v.1.15,2013-10-10 23:34:00,
2013-10-10 16:40:00,63.9,29.2,29.79,NW,319,0.0,0.0,27,0.00,,,0.00,Wunderground v.1.15,2013-10-10 23:40:00,
2013-10-10 16:45:00,63.9,28.3,29.79,WNW,292,0.0,0.0,26,0.00,,,0.00,Wunderground v.1.15,2013-10-10 23:45:00,
2013-10-10 16:51:00,64.0,28.4,29.79,WNW,283,0.0,0.0,26,0.00,,,0.00,Wunderground v.1.15,2013-10-10 23:51:00,
2013-10-10 16:57:00,63.9,29.2,29.79,West,264,0.0,0.0,27,0.00,,,0.00,Wunderground v.1.15,2013-10-10 23:57:00,
2013-10-10 17:03:00,63.6,29.0,29.79,WNW,283,0.0,0.0,27,0.00,,,0.00,Wunderground v.1.15,2013-10-11 00:03:00,
2013-10-10 17:08:00,63.7,29.1,29.79,NNW,332,0.0,0.0,27,0.00,,,0.00,Wunderground v.1.15,2013-10-11 00:08:00,
2013-10-10 17:14:00,63.6,29.0,29.79,WNW,288,0.0,0.0,27,0.00,,,0.00,Wunderground v.1.15,2013-10-11 00:14:00,
2013-10-10 17:20:00,63.3,28.7,29.79,NW,311,0.0,0.0,27,0.00,,,0.00,Wunderground v.1.15,2013-10-11 00:20:00,
2013-10-10 17:25:00,63.4,28.8,29.79,WNW,292,0.0,0.0,27,0.00,,,0.00,Wunderground v.1.15,2013-10-11 00:25:00,
2013-10-10 17:31:00,63.2,27.7,29.79,WNW,285,0.0,0.0,26,0.00,,,0.00,Wunderground v.1.15,2013-10-11 00:31:00,
2013-10-10 17:37:00,63.1,27.6,29.79,WNW,295,0.0,0.0,26,0.00,,,0.00,Wunderground v.1.15,2013-10-11 00:37:00,
2013-10-10 17:42:00,62.9,26.5,29.79,NNW,328,0.0,0.0,25,0.00,,,0.00,Wunderground v.1.15,2013-10-11 00:42:00,
2013-10-10 17:48:00,62.4,27.0,29.79,NW,311,0.0,0.0,26,0.00,,,0.00,Wunderground v.1.15,2013-10-11 00:48:00,
2013-10-10 17:54:00,62.2,26.9,29.79,NW,323,0.0,0.0,26,0.00,,,0.00,Wunderground v.1.15,2013-10-11 00:54:00,
2013-10-10 17:59:00,62.1,26.8,29.79,WNW,292,0.0,0.0,26,0.00,,,0.00,Wunderground v.1.15,2013-10-11 00:59:00,
2013-10-10 18:05:00,62.0,25.7,29.80,WNW,301,0.0,0.0,25,0.00,,,0.00,Wunderground v.1.15,2013-10-11 01:05:00,
2013-10-10 18:10:00,61.7,24.5,29.79,WNW,289,0.0,1.0,24,0.00,,,0.00,Wunderground v.1.15,2013-10-11 01:10:00,
2013-10-10 18:16:00,61.0,24.9,29.80,NNW,329,0.0,1.0,25,0.00,,,0.00,Wunderground v.1.15,2013-10-11 01:16:00,
2013-10-10 18:22:00,60.1,23.1,29.80,NNW,329,2.0,4.0,24,0.00,,,0.00,Wunderground v.1.15,2013-10-11 01:22:00,
2013-10-10 18:27:00,59.5,22.6,29.80,NW,326,2.0,4.0,24,0.00,,,0.00,Wunderground v.1.15,2013-10-11 01:27:00,
2013-10-10 18:33:00,59.1,23.3,29.80,NW,319,0.0,2.0,25,0.00,,,0.00,Wunderground v.1.15,2013-10-11 01:33:00,
2013-10-10 18:39:00,58.8,22.0,29.80,NNW,341,0.0,2.0,24,0.00,,,0.00,Wunderground v.1.15,2013-10-11 01:39:00,
2013-10-10 18:44:00,58.4,21.7,29.80,NNW,338,0.0,0.0,24,0.00,,,0.00,Wunderground v.1.15,2013-10-11 01:44:00,
2013-10-10 18:50:00,58.1,22.4,29.81,NNW,330,0.0,0.0,25,0.00,,,0.00,Wunderground v.1.15,2013-10-11 01:50:00,
2013-10-10 18:56:00,57.8,22.2,29.81,NNW,339,0.0,0.0,25,0.00,,,0.00,Wunderground v.1.15,2013-10-11 01:56:00,
2013-10-10 19:01:00,57.4,21.8,29.81,NNW,333,0.0,0.0,25,0.00,,,0.00,Wunderground v.1.15,2013-10-11 02:01:00,
2013-10-10 19:07:00,56.9,21.4,29.81,NW,320,0.0,0.0,25,0.00,,,0.00,Wunderground v.1.15,2013-10-11 02:07:00,
2013-10-10 19:13:00,56.4,21.9,29.82,NW,317,0.0,0.0,26,0.00,,,0.00,Wunderground v.1.15,2013-10-11 02:13:00,
2013-10-10 19:18:00,56.2,21.7,29.82,NW,314,0.0,0.0,26,0.00,,,0.00,Wunderground v.1.15,2013-10-11 02:18:00,
2013-10-10 19:24:00,55.5,21.1,29.82,West,274,0.0,0.0,26,0.00,,,0.00,Wunderground v.1.15,2013-10-11 02:24:00,
2013-10-10 19:30:00,54.9,21.5,29.82,WNW,300,0.0,0.0,27,0.00,,,0.00,Wunderground v.1.15,2013-10-11 02:30:00,
2013-10-10 19:36:00,55.0,21.6,29.82,NW,309,0.0,0.0,27,0.00,,,0.00,Wunderground v.1.15,2013-10-11 02:36:00,
2013-10-10 19:42:00,55.2,20.9,29.83,NNW,330,0.0,0.0,26,0.00,,,0.00,Wunderground v.1.15,2013-10-11 02:42:00,
2013-10-10 19:47:00,55.1,21.7,29.83,NNW,328,0.0,0.0,27,0.00,,,0.00,Wunderground v.1.15,2013-10-11 02:47:00,
2013-10-10 19:53:00,54.9,21.5,29.83,WNW,298,0.0,0.0,27,0.00,,,0.00,Wunderground v.1.15,2013-10-11 02:53:00,
2013-10-10 19:58:00,54.5,21.2,29.83,WNW,302,0.0,0.0,27,0.00,,,0.00,Wunderground v.1.15,2013-10-11 02:58:00,
2013-10-10 20:04:00,54.4,21.9,29.83,WNW,300,0.0,0.0,28,0.00,,,0.00,Wunderground v.1.15,2013-10-11 03:04:00,
2013-10-10 20:10:00,54.5,22.0,29.83,WNW,300,0.0,0.0,28,0.00,,,0.00,Wunderground v.1.15,2013-10-11 03:10:00,
2013-10-10 20:15:00,54.2,21.8,29.83,WNW,287,0.0,0.0,28,0.00,,,0.00,Wunderground v.1.15,2013-10-11 03:15:00,
2013-10-10 20:21:00,54.4,21.9,29.84,WNW,285,0.0,0.0,28,0.00,,,0.00,Wunderground v.1.15,2013-10-11 03:21:00,
2013-10-10 20:27:00,54.8,22.3,29.84,WNW,285,0.0,0.0,28,0.00,,,0.00,Wunderground v.1.15,2013-10-11 03:27:00,
2013-10-10 20:33:00,54.9,21.5,29.84,WNW,285,0.0,1.0,27,0.00,,,0.00,Wunderground v.1.15,2013-10-11 03:33:00,
2013-10-10 20:38:00,55.2,21.8,29.84,WNW,285,0.0,1.0,27,0.00,,,0.00,Wunderground v.1.15,2013-10-11 03:38:00,
2013-10-10 20:44:00,55.2,21.8,29.84,WNW,285,1.0,1.0,27,0.00,,,0.00,Wunderground v.1.15,2013-10-11 03:44:00,
2013-10-10 20:49:00,54.7,21.3,29.85,WNW,301,1.0,2.0,27,0.00,,,0.00,Wunderground v.1.15,2013-10-11 03:49:00,
2013-10-10 20:55:00,54.3,21.0,29.85,WNW,287,1.0,1.0,27,0.00,,,0.00,Wunderground v.1.15,2013-10-11 03:55:00,
2013-10-10 21:00:00,54.1,21.7,29.85,WNW,283,1.0,3.0,28,0.00,,,0.00,Wunderground v.1.15,2013-10-11 04:00:00,
2013-10-10 21:01:00,54.1,21.7,29.85,West,278,1.0,3.0,28,0.00,,,0.00,Wunderground v.1.15,2013-10-11 04:01:00,
2013-10-10 21:02:00,54.0,21.6,29.85,West,281,1.0,3.0,28,0.00,,,0.00,Wunderground v.1.15,2013-10-11 04:02:00,
2013-10-10 21:05:00,53.5,21.2,29.85,West,279,1.0,3.0,28,0.00,,,0.00,Wunderground v.1.15,2013-10-11 04:05:00,
2013-10-10 21:11:00,52.8,21.4,29.85,West,279,1.0,1.0,29,0.00,,,0.00,Wunderground v.1.15,2013-10-11 04:11:00,
2013-10-10 21:13:00,52.8,21.4,29.85,West,278,0.0,1.0,29,0.00,,,0.00,Wunderground v.1.15,2013-10-11 04:13:00,
2013-10-10 21:15:00,52.7,21.3,29.85,West,274,0.0,1.0,29,0.00,,,0.00,Wunderground v.1.15,2013-10-11 04:15:00,
2013-10-10 21:20:00,51.8,20.5,29.85,West,263,0.0,0.0,29,0.00,,,0.00,Wunderground v.1.15,2013-10-11 04:20:00,
2013-10-10 21:26:00,49.7,21.0,29.86,SW,233,0.0,0.0,32,0.00,,,0.00,Wunderground v.1.15,2013-10-11 04:26:00,
2013-10-10 21:31:00,50.0,22.7,29.86,SW,234,0.0,0.0,34,0.00,,,0.00,Wunderground v.1.15,2013-10-11 04:31:00,
2013-10-10 21:37:00,50.9,22.8,29.87,SW,219,0.0,0.0,33,0.00,,,0.00,Wunderground v.1.15,2013-10-11 04:37:00,
2013-10-10 21:43:00,50.8,22.0,29.87,West,259,0.0,0.0,32,0.00,,,0.00,Wunderground v.1.15,2013-10-11 04:43:00,
2013-10-10 21:48:00,50.9,22.1,29.87,SSW,202,0.0,0.0,32,0.00,,,0.00,Wunderground v.1.15,2013-10-11 04:48:00,
2013-10-10 21:54:00,50.2,22.9,29.87,SSW,205,0.0,0.0,34,0.00,,,0.00,Wunderground v.1.15,2013-10-11 04:54:00,
2013-10-10 22:00:00,49.7,23.1,29.88,SW,226,0.0,0.0,35,0.00,,,0.00,Wunderground v.1.15,2013-10-11 05:00:00,
2013-10-10 22:06:00,49.8,23.2,29.87,SW,226,0.0,0.0,35,0.00,,,0.00,Wunderground v.1.15,2013-10-11 05:06:00,
2013-10-10 22:11:00,50.1,22.8,29.88,SW,227,0.0,0.0,34,0.00,,,0.00,Wunderground v.1.15,2013-10-11 05:11:00,
2013-10-10 22:17:00,50.0,22.7,29.88,SW,219,0.0,0.0,34,0.00,,,0.00,Wunderground v.1.15,2013-10-11 05:17:00,
2013-10-10 22:22:00,50.0,22.7,29.88,SW,216,0.0,0.0,34,0.00,,,0.00,Wunderground v.1.15,2013-10-11 05:22:00,
2013-10-10 22:28:00,49.6,23.0,29.88,SW,216,0.0,0.0,35,0.00,,,0.00,Wunderground v.1.15,2013-10-11 05:28:00,
2013-10-10 22:34:00,49.6,23.7,29.88,SW,216,0.0,0.0,36,0.00,,,0.00,Wunderground v.1.15,2013-10-11 05:34:00,
2013-10-10 22:40:00,49.3,23.4,29.88,SW,234,0.0,0.0,36,0.00,,,0.00,Wunderground v.1.15,2013-10-11 05:40:00,
2013-10-10 22:45:00,50.1,26.1,29.88,WSW,251,0.0,0.0,39,0.00,,,0.00,Wunderground v.1.15,2013-10-11 05:45:00,
2013-10-10 22:51:00,50.3,26.3,29.88,West,264,0.0,0.0,39,0.00,,,0.00,Wunderground v.1.15,2013-10-11 05:51:00,
2013-10-10 22:57:00,50.4,27.6,29.88,WSW,258,0.0,0.0,41,0.00,,,0.00,Wunderground v.1.15,2013-10-11 05:57:00,
2013-10-10 23:02:00,50.9,29.2,29.88,West,265,0.0,0.0,43,0.00,,,0.00,Wunderground v.1.15,2013-10-11 06:02:00,
2013-10-10 23:08:00,49.9,27.7,29.88,WSW,255,0.0,1.0,42,0.00,,,0.00,Wunderground v.1.15,2013-10-11 06:08:00,
2013-10-10 23:14:00,48.7,28.3,29.88,West,261,0.0,0.0,45,0.00,,,0.00,Wunderground v.1.15,2013-10-11 06:14:00,
2013-10-10 23:19:00,48.6,29.8,29.88,WSW,253,0.0,0.0,48,0.00,,,0.00,Wunderground v.1.15,2013-10-11 06:19:00,
2013-10-10 23:25:00,49.1,30.2,29.89,West,280,0.0,0.0,48,0.00,,,0.00,Wunderground v.1.15,2013-10-11 06:25:00,
2013-10-10 23:31:00,49.1,31.2,29.89,West,265,0.0,0.0,50,0.00,,,0.00,Wunderground v.1.15,2013-10-11 06:31:00,
2013-10-10 23:37:00,49.6,31.7,29.89,WNW,294,0.0,0.0,50,0.00,,,0.00,Wunderground v.1.15,2013-10-11 06:37:00,
2013-10-10 23:42:00,50.0,32.1,29.89,WSW,242,0.0,0.0,50,0.00,,,0.00,Wunderground v.1.15,2013-10-11 06:42:00,
2013-10-10 23:48:00,50.2,32.3,29.89,NW,304,0.0,3.0,50,0.00,,,0.00,Wunderground v.1.15,2013-10-11 06:48:00,
2013-10-10 23:54:00,50.0,32.1,29.89,WNW,297,1.0,6.0,50,0.00,,,0.00,Wunderground v.1.15,2013-10-11 06:54:00,
2013-10-10 23:59:00,49.8,31.4,29.89,WNW,288,3.0,6.0,49,0.00,,,0.00,Wunderground v.1.15,2013-10-11 06:59:00,